Time;durP1;ratioP1;P1;durP2;ratioP2;P2;SDS_P1;SDS_P2;PMS_P1;PMS_P2;Temp;Humidity;BMP_temperature;BMP_pressure;BME280_temperature;BME280_humidity;BME280_pressure;Samples;Min_cycle;Max_cycle;Signal;HPM_P1;HPM_P2
2022/06/15 00:00:24;;;;;;;4.57;3.27;;;22.80;45.20;24.20;101009.00;;;;5067689;28;20174;-43
2022/06/15 00:02:49;;;;;;;5.47;3.27;;;22.80;45.30;24.20;101004.00;;;;5066910;28;20221;-43
2022/06/15 00:05:15;;;;;;;5.77;3.50;;;22.80;45.40;24.20;100998.00;;;;5066823;28;20266;-43
2022/06/15 00:07:41;;;;;;;6.37;3.00;;;22.70;45.40;24.10;100994.00;;;;5048161;28;20276;-43
2022/06/15 00:10:08;;;;;;;4.73;2.97;;;22.70;45.50;24.10;101002.00;;;;5066721;28;20176;-43
2022/06/15 00:12:35;;;;;;;6.13;3.40;;;22.70;45.70;24.10;100990.00;;;;5066786;28;20757;-44
2022/06/15 00:15:01;;;;;;;4.23;2.90;;;22.60;45.60;24.10;100992.00;;;;5066626;28;20182;-43
2022/06/15 00:17:27;;;;;;;4.73;3.03;;;22.60;45.70;24.10;100986.00;;;;5066627;28;20174;-43
2022/06/15 00:19:53;;;;;;;4.83;3.03;;;22.60;45.70;24.00;100985.00;;;;5066621;28;20178;-44
2022/06/15 00:22:18;;;;;;;4.70;3.13;;;22.60;45.90;24.00;100981.00;;;;5066066;28;20213;-44
2022/06/15 00:24:44;;;;;;;4.20;3.00;;;22.70;45.80;24.00;100981.00;;;;5066290;28;20600;-44
2022/06/15 00:27:10;;;;;;;4.33;2.80;;;22.60;45.80;24.00;100990.00;;;;5066550;28;20204;-45
2022/06/15 00:29:37;;;;;;;4.30;3.17;;;22.70;46.00;24.00;100981.00;;;;5066278;28;20165;-45
2022/06/15 00:32:05;;;;;;;4.37;2.97;;;22.70;45.90;24.10;100983.00;;;;5066641;28;20520;-43
2022/06/15 00:34:31;;;;;;;5.60;2.80;;;22.80;46.10;24.10;100986.00;;;;5083154;28;20169;-44
2022/06/15 00:36:57;;;;;;;3.77;2.80;;;22.80;46.00;24.10;100988.00;;;;5090592;28;20246;-43
2022/06/15 00:39:22;;;;;;;5.17;3.17;;;22.90;46.00;24.10;100982.00;;;;5088452;28;20181;-44
2022/06/15 00:41:48;;;;;;;5.53;3.20;;;22.90;45.90;24.20;100979.00;;;;5077939;28;20217;-44
2022/06/15 00:44:17;;;;;;;4.83;3.00;;;22.90;46.10;24.20;100977.00;;;;5067303;28;20198;-44
2022/06/15 00:46:43;;;;;;;5.10;3.10;;;22.90;46.40;24.20;100988.00;;;;5065879;28;20208;-43
2022/06/15 00:49:34;;;;;;;3.57;2.73;;;23.00;46.30;24.20;100984.00;;;;5003902;28;22471;-43
2022/06/15 00:52:16;;;;;;;5.13;2.87;;;22.90;46.50;24.20;100958.00;;;;5102621;28;20180;-43
2022/06/15 00:54:45;;;;;;;4.37;3.00;;;22.90;46.70;24.20;100978.00;;;;5101187;28;20207;-44
2022/06/15 00:57:10;;;;;;;3.83;2.83;;;23.00;46.70;24.20;100979.00;;;;5102720;28;20176;-43
2022/06/15 00:59:39;;;;;;;4.83;2.83;;;23.00;46.70;24.20;100982.00;;;;5103276;28;20210;-44
2022/06/15 01:02:05;;;;;;;7.30;3.17;;;23.00;46.80;24.20;100975.00;;;;5089442;28;20222;-44
2022/06/15 01:04:40;;;;;;;3.93;2.80;;;22.90;46.80;24.20;100972.00;;;;5088279;28;20632;-44
2022/06/15 01:07:46;;;;;;;3.97;3.00;;;23.00;47.10;24.20;100978.00;;;;5102588;28;20218;-43
2022/06/15 01:10:31;;;;;;;4.27;2.70;;;22.90;47.10;24.20;100979.00;;;;5098285;28;20676;-43
2022/06/15 01:14:04;;;;;;;3.97;2.90;;;23.00;47.30;24.20;100983.00;;;;5099583;28;20201;-45
2022/06/15 01:17:07;;;;;;;4.30;2.90;;;22.90;47.30;24.20;100984.00;;;;5101746;28;20172;-43
2022/06/15 01:19:43;;;;;;;3.73;2.70;;;22.90;47.50;24.10;100981.00;;;;5086225;28;20172;-44
2022/06/15 01:22:30;;;;;;;3.47;2.63;;;22.90;47.80;24.20;100992.00;;;;5102471;28;20157;-44
2022/06/15 01:25:33;;;;;;;3.83;3.00;;;22.90;47.70;24.10;100984.00;;;;5086466;28;20177;-45
2022/06/15 01:28:35;;;;;;;4.03;3.00;;;22.90;47.80;24.10;100986.00;;;;5086290;28;20268;-44
2022/06/15 01:31:24;;;;;;;3.33;2.60;;;22.90;47.90;24.10;100985.00;;;;5101647;28;20183;-44
2022/06/15 01:34:21;;;;;;;2.80;2.47;;;22.90;48.00;24.10;100985.00;;;;5086172;28;20216;-44
2022/06/15 01:36:59;;;;;;;4.20;2.87;;;22.80;47.90;24.10;100987.00;;;;5103418;28;20142;-44
2022/06/15 01:39:56;;;;;;;3.33;2.70;;;22.80;47.90;24.10;100991.00;;;;5087339;28;20153;-44
2022/06/15 01:42:31;;;;;;;4.47;2.70;;;22.80;48.00;24.00;100989.00;;;;5086209;28;20191;-44
2022/06/15 01:45:00;;;;;;;4.57;3.00;;;22.80;48.00;24.00;100956.00;;;;5100786;28;20148;-44
2022/06/15 01:47:27;;;;;;;3.27;2.80;;;22.80;48.00;24.00;100990.00;;;;5100744;28;20594;-43
2022/06/15 01:50:05;;;;;;;3.47;2.80;;;22.80;48.00;24.00;100986.00;;;;5101089;28;20729;-44
2022/06/15 01:52:58;;;;;;;3.33;3.00;;;22.80;48.10;24.00;100985.00;;;;5100703;28;20243;-42
2022/06/15 01:55:43;;;;;;;4.80;2.80;;;22.80;48.10;24.00;100979.00;;;;5100407;28;20158;-44
2022/06/15 01:58:09;;;;;;;4.07;2.70;;;22.80;48.20;23.70;100966.00;;;;5104530;28;20157;-44
2022/06/15 02:00:35;;;;;;;3.50;3.20;;;22.80;48.10;23.90;100976.00;;;;5104727;28;20657;-44
2022/06/15 02:03:33;;;;;;;4.03;2.90;;;22.80;48.10;23.90;100980.00;;;;5104806;28;20185;-46
2022/06/15 02:06:19;;;;;;;3.30;3.00;;;22.80;48.10;23.90;100976.00;;;;5101665;28;20612;-45
2022/06/15 02:09:36;;;;;;;3.10;2.80;;;22.80;48.10;23.90;100966.00;;;;5102758;28;20651;-44
2022/06/15 02:12:03;;;;;;;2.97;2.70;;;22.80;48.10;23.90;100968.00;;;;5076330;28;20180;-44
2022/06/15 02:14:45;;;;;;;3.47;2.97;;;22.80;48.20;23.90;100976.00;;;;5104564;28;20179;-45
2022/06/15 02:17:22;;;;;;;3.43;2.80;;;22.80;48.30;23.80;100956.00;;;;5104623;28;20180;-52
2022/06/15 02:19:50;;;;;;;3.57;2.70;;;22.70;48.30;23.80;100957.00;;;;5104073;28;20931;-44
2022/06/15 02:22:22;;;;;;;3.43;2.80;;;22.70;48.20;23.80;100957.00;;;;5103675;28;20172;-43
2022/06/15 02:24:51;;;;;;;3.00;2.50;;;22.70;48.60;23.80;100953.00;;;;5103947;28;20194;-43
2022/06/15 02:27:17;;;;;;;3.53;3.00;;;22.70;48.60;23.80;100954.00;;;;5104157;28;20197;-43
2022/06/15 02:29:42;;;;;;;3.23;2.67;;;22.60;48.50;23.70;100947.00;;;;5104544;28;20200;-42
2022/06/15 02:32:09;;;;;;;3.13;2.87;;;22.60;48.30;23.70;100952.00;;;;5104317;28;20165;-43
2022/06/15 02:34:35;;;;;;;3.03;2.73;;;22.70;48.60;23.70;100874.00;;;;5104096;28;20194;-44
2022/06/15 02:37:01;;;;;;;3.83;3.00;;;22.70;48.40;23.70;100949.00;;;;5088673;28;20263;-45
2022/06/15 02:39:27;;;;;;;4.13;2.70;;;22.70;48.30;23.70;100949.00;;;;5088381;28;20207;-43
2022/06/15 02:42:02;;;;;;;3.50;2.70;;;22.70;48.30;23.70;100953.00;;;;5088359;28;20246;-44
2022/06/15 02:44:30;;;;;;;4.87;2.90;;;22.70;48.30;23.70;100953.00;;;;5088488;28;20764;-45
2022/06/15 02:46:56;;;;;;;3.27;2.80;;;22.70;48.30;23.60;100942.00;;;;5103826;28;20709;-45
2022/06/15 02:49:22;;;;;;;3.30;2.90;;;22.70;48.30;23.60;100947.00;;;;5104158;28;20166;-44
2022/06/15 02:52:03;;;;;;;3.33;2.70;;;22.70;48.30;23.60;100946.00;;;;5104091;28;20173;-43
2022/06/15 02:54:47;;;;;;;3.43;2.70;;;22.60;48.30;23.60;100935.00;;;;5102578;28;20153;-44
2022/06/15 02:57:13;;;;;;;4.43;2.90;;;22.60;48.30;23.60;100947.00;;;;5103647;28;20161;-44
2022/06/15 02:59:39;;;;;;;3.53;2.77;;;22.60;48.90;23.60;100950.00;;;;5103902;28;20180;-44
2022/06/15 03:02:04;;;;;;;3.93;3.20;;;22.60;48.30;23.60;100942.00;;;;5087984;28;20191;-44
2022/06/15 03:04:30;;;;;;;3.60;2.97;;;22.60;48.30;23.50;100942.00;;;;5088134;28;20176;-45
2022/06/15 03:06:56;;;;;;;4.40;2.80;;;22.60;48.30;23.50;100947.00;;;;5086955;28;20200;-44
2022/06/15 03:09:22;;;;;;;3.40;2.70;;;22.60;48.30;23.50;100943.00;;;;5087633;28;20165;-44
2022/06/15 03:11:47;;;;;;;3.83;3.07;;;22.50;48.30;23.50;100948.00;;;;5087966;28;20211;-45
2022/06/15 03:14:14;;;;;;;3.13;2.70;;;22.50;48.30;23.50;100944.00;;;;5087904;28;20196;-45
2022/06/15 03:16:43;;;;;;;3.10;2.80;;;22.50;48.30;23.50;100952.00;;;;5087675;28;20864;-43
2022/06/15 03:19:12;;;;;;;2.90;2.60;;;22.50;49.00;23.50;100941.00;;;;5087517;28;20168;-43
2022/06/15 03:21:38;;;;;;;3.60;2.90;;;22.50;48.40;23.50;100946.00;;;;5082576;28;20188;-43
2022/06/15 03:24:05;;;;;;;3.90;2.70;;;22.50;48.50;23.50;100959.00;;;;5075649;28;20216;-45
2022/06/15 03:26:30;;;;;;;3.43;2.77;;;22.40;48.40;23.40;100944.00;;;;5065555;28;20189;-43
2022/06/15 03:28:56;;;;;;;3.00;2.70;;;22.50;48.50;23.40;100950.00;;;;5066568;28;20243;-43
2022/06/15 03:31:22;;;;;;;3.07;2.70;;;22.40;48.40;23.40;100951.00;;;;5066911;28;20716;-43
2022/06/15 03:33:48;;;;;;;3.73;2.87;;;22.40;48.30;23.40;100944.00;;;;5066713;28;20199;-44
2022/06/15 03:36:14;;;;;;;5.07;2.90;;;22.40;48.20;23.40;100959.00;;;;5069884;28;20212;-44
2022/06/15 03:38:40;;;;;;;3.13;2.80;;;22.40;48.20;23.40;100947.00;;;;5088137;28;20204;-45
2022/06/15 03:41:05;;;;;;;3.63;2.70;;;22.40;48.20;23.30;100951.00;;;;5089926;28;20746;-44
2022/06/15 03:43:31;;;;;;;6.70;6.10;;;22.40;48.10;23.30;100954.00;;;;5088560;28;20227;-43
2022/06/15 03:45:57;;;;;;;7.30;6.60;;;22.40;48.10;23.30;100951.00;;;;5089866;28;20211;-43
2022/06/15 03:48:23;;;;;;;7.40;5.70;;;22.40;48.10;23.30;100942.00;;;;5089418;28;20680;-43
2022/06/15 03:50:49;;;;;;;8.20;7.40;;;22.40;48.20;23.30;100949.00;;;;5093811;28;20240;-45
2022/06/15 03:53:15;;;;;;;8.50;7.70;;;22.30;48.10;23.30;100947.00;;;;5108951;28;20196;-45
2022/06/15 03:55:41;;;;;;;5.90;5.40;;;22.30;48.10;23.30;100954.00;;;;5109473;28;20173;-44
2022/06/15 03:58:10;;;;;;;5.23;4.47;;;22.30;48.20;23.20;100950.00;;;;5089793;28;20585;-44
2022/06/15 04:00:36;;;;;;;4.50;4.10;;;22.20;48.20;23.20;100948.00;;;;5072063;28;20157;-44
2022/06/15 04:03:01;;;;;;;5.63;4.40;;;22.20;48.10;23.20;100956.00;;;;5089604;28;20283;-44
2022/06/15 04:05:33;;;;;;;4.10;3.70;;;22.20;48.20;23.20;100951.00;;;;5089442;28;20248;-44
2022/06/15 04:10:43;;;;;;;5.70;3.43;;;22.20;48.20;23.10;100954.00;;;;5090234;28;20232;-44
2022/06/15 04:13:09;;;;;;;4.60;3.20;;;22.20;48.20;23.10;100950.00;;;;5098130;28;20181;-43
2022/06/15 04:15:35;;;;;;;3.57;3.27;;;22.10;48.10;23.10;100953.00;;;;5094808;28;20718;-45
2022/06/15 04:18:00;;;;;;;3.57;3.27;;;22.10;48.10;23.10;100956.00;;;;5089122;28;20196;-43
2022/06/15 04:20:32;;;;;;;3.97;3.20;;;22.20;48.20;23.10;100961.00;;;;5088760;28;20168;-44
2022/06/15 04:23:03;;;;;;;3.43;3.13;;;22.10;48.20;23.00;100956.00;;;;5089176;28;20257;-44
2022/06/15 04:25:30;;;;;;;3.17;2.87;;;22.10;48.20;23.00;100962.00;;;;5089839;28;20600;-44
2022/06/15 04:27:56;;;;;;;4.00;3.23;;;22.10;48.30;23.00;100960.00;;;;5089038;28;20230;-44
2022/06/15 04:30:22;;;;;;;3.57;3.13;;;22.10;48.20;23.00;100949.00;;;;5088957;28;20179;-44
2022/06/15 04:32:48;;;;;;;3.30;3.00;;;22.10;48.40;23.00;100965.00;;;;5088983;28;20184;-45
2022/06/15 04:35:14;;;;;;;4.20;3.17;;;22.10;48.50;23.00;100964.00;;;;5089295;28;20525;-44
2022/06/15 04:37:40;;;;;;;3.67;3.00;;;22.00;48.30;23.00;100959.00;;;;5088714;28;20196;-44
2022/06/15 04:40:07;;;;;;;3.97;3.30;;;22.00;48.40;22.90;100955.00;;;;5089409;28;20897;-44
2022/06/15 04:42:33;;;;;;;5.43;3.20;;;22.00;48.50;22.90;100950.00;;;;5089064;28;20193;-45
2022/06/15 04:44:58;;;;;;;3.27;3.00;;;22.00;48.50;22.90;100929.00;;;;5088823;28;20194;-44
2022/06/15 04:47:24;;;;;;;3.27;2.97;;;22.00;48.40;22.90;100955.00;;;;5088416;28;20563;-44
2022/06/15 04:49:50;;;;;;;3.93;3.17;;;22.00;48.50;22.90;100956.00;;;;5088985;28;20633;-44
2022/06/15 04:52:16;;;;;;;5.00;3.10;;;22.00;48.60;22.90;100957.00;;;;5088510;28;20176;-44
2022/06/15 04:54:42;;;;;;;4.43;3.10;;;22.00;48.90;22.80;100951.00;;;;5089903;28;20177;-44
2022/06/15 04:57:07;;;;;;;4.27;3.00;;;22.00;48.80;22.80;100963.00;;;;5089432;28;20262;-44
2022/06/15 04:59:33;;;;;;;11.80;3.43;;;22.00;48.80;22.80;100949.00;;;;5090592;28;20258;-45
2022/06/15 05:01:59;;;;;;;3.67;3.03;;;21.90;49.30;22.80;100957.00;;;;5089738;28;20609;-44
2022/06/15 05:04:28;;;;;;;3.70;3.00;;;22.00;49.10;22.80;100960.00;;;;5090260;28;20571;-43
2022/06/15 05:06:53;;;;;;;3.30;3.00;;;22.00;49.20;22.70;100965.00;;;;5089658;28;20689;-45
2022/06/15 05:09:19;;;;;;;3.80;3.17;;;21.90;49.10;22.80;100958.00;;;;5089650;28;20267;-44
2022/06/15 05:11:45;;;;;;;3.40;3.10;;;22.00;49.10;22.80;100972.00;;;;5089283;28;20157;-43
2022/06/15 05:14:11;;;;;;;3.80;3.30;;;21.90;49.20;22.80;100964.00;;;;5089410;28;20203;-44
2022/06/15 05:16:37;;;;;;;3.50;3.20;;;21.90;49.30;22.70;100970.00;;;;5088554;28;20535;-44
2022/06/15 05:19:03;;;;;;;3.93;3.10;;;21.90;49.10;22.70;100964.00;;;;5088647;28;20203;-44
2022/06/15 05:21:29;;;;;;;4.23;3.30;;;21.90;49.20;22.70;100964.00;;;;5087412;28;20538;-42
2022/06/15 05:23:55;;;;;;;4.23;3.17;;;21.90;49.40;22.70;100967.00;;;;5088866;28;20200;-42
2022/06/15 05:26:24;;;;;;;5.17;3.30;;;21.80;49.60;22.70;100969.00;;;;5089046;28;20188;-43
2022/06/15 05:28:50;;;;;;;3.40;3.07;;;21.80;49.60;22.70;100967.00;;;;5087741;28;20169;-42
2022/06/15 05:31:20;;;;;;;3.40;3.10;;;21.90;49.80;22.70;100973.00;;;;5092006;28;20547;-45
2022/06/15 05:33:47;;;;;;;3.03;2.77;;;21.90;49.80;22.60;100965.00;;;;5094103;28;20187;-43
2022/06/15 05:36:17;;;;;;;3.80;3.07;;;21.80;49.70;22.60;100969.00;;;;5091989;28;20267;-44
2022/06/15 05:38:42;;;;;;;3.27;2.90;;;21.80;49.80;22.60;100965.00;;;;5092990;28;20160;-42
2022/06/15 05:41:08;;;;;;;3.43;2.80;;;21.80;49.90;22.60;100969.00;;;;5093419;28;20179;-44
2022/06/15 05:43:35;;;;;;;4.37;3.30;;;21.80;50.00;22.60;100965.00;;;;5092059;28;20713;-43
2022/06/15 05:46:16;;;;;;;3.37;3.03;;;21.80;50.00;22.50;100971.00;;;;5092348;28;20291;-44
2022/06/15 05:48:42;;;;;;;3.50;2.90;;;21.80;50.10;22.50;100971.00;;;;5092077;28;20248;-43
2022/06/15 05:51:07;;;;;;;4.67;3.43;;;21.80;50.00;22.50;100964.00;;;;5092255;28;20680;-43
2022/06/15 05:53:33;;;;;;;4.13;3.40;;;21.70;50.10;22.50;100974.00;;;;5091891;28;20263;-44
2022/06/15 05:55:59;;;;;;;3.33;2.90;;;21.80;50.40;22.50;100971.00;;;;5090888;28;20308;-43
2022/06/15 05:58:24;;;;;;;3.50;3.20;;;21.70;50.00;22.50;100975.00;;;;5091402;28;20644;-44
2022/06/15 06:00:50;;;;;;;3.30;3.00;;;21.70;50.50;22.50;100965.00;;;;5092210;28;20173;-44
2022/06/15 06:03:16;;;;;;;4.20;3.30;;;21.70;50.10;22.50;100967.00;;;;5091887;28;20612;-43
2022/06/15 06:05:42;;;;;;;3.80;3.10;;;21.60;50.10;22.20;100975.00;;;;5091991;28;20286;-44
2022/06/15 06:08:08;;;;;;;3.23;2.80;;;21.60;50.10;22.50;100973.00;;;;5091282;28;20174;-42
2022/06/15 06:10:33;;;;;;;4.00;3.00;;;21.50;50.20;22.50;100978.00;;;;5092199;28;20670;-43
2022/06/15 06:12:59;;;;;;;4.50;3.10;;;21.50;50.40;22.40;100968.00;;;;5091927;28;20559;-43
2022/06/15 06:15:26;;;;;;;3.87;2.93;;;21.60;50.50;22.40;100975.00;;;;5091660;28;20534;-42
2022/06/15 06:17:51;;;;;;;3.27;2.97;;;21.60;50.50;22.40;100974.00;;;;5091254;28;20260;-41
2022/06/15 06:20:17;;;;;;;3.60;3.30;;;21.60;50.50;22.40;100980.00;;;;5091505;28;20253;-43
2022/06/15 06:22:43;;;;;;;5.87;3.50;;;21.60;50.80;22.40;100984.00;;;;5090906;28;20676;-42
2022/06/15 06:25:10;;;;;;;3.20;2.90;;;21.60;50.80;22.40;100944.00;;;;5091338;28;20174;-44
2022/06/15 06:27:36;;;;;;;3.23;2.93;;;21.60;50.70;22.40;100977.00;;;;5089687;28;20199;-45
2022/06/15 06:30:03;;;;;;;3.30;3.00;;;21.60;50.60;22.40;100982.00;;;;5091181;28;20644;-43
2022/06/15 06:32:29;;;;;;;4.23;2.83;;;21.60;50.50;22.30;100977.00;;;;5091631;28;20188;-43
2022/06/15 06:34:55;;;;;;;5.27;2.70;;;21.60;50.30;22.30;100985.00;;;;5091386;28;20192;-43
2022/06/15 06:37:21;;;;;;;3.77;3.00;;;21.60;50.30;22.30;100976.00;;;;5090844;28;20183;-45
2022/06/15 06:39:47;;;;;;;3.10;2.70;;;21.60;50.30;22.30;100978.00;;;;5089743;28;20551;-43
2022/06/15 06:42:13;;;;;;;3.97;2.90;;;21.50;50.40;22.30;100973.00;;;;5088819;28;20644;-43
2022/06/15 06:44:39;;;;;;;3.33;2.67;;;21.50;50.30;22.30;100978.00;;;;5091313;28;20672;-43
2022/06/15 06:47:06;;;;;;;3.90;2.87;;;21.40;50.30;22.30;100985.00;;;;5082904;28;20201;-43
2022/06/15 06:49:32;;;;;;;3.53;3.00;;;21.40;50.30;22.30;100989.00;;;;5072910;28;20182;-42
2022/06/15 06:51:57;;;;;;;4.03;2.80;;;21.40;50.60;22.20;100988.00;;;;5070669;28;20184;-42
2022/06/15 06:54:23;;;;;;;3.70;2.83;;;21.40;50.70;22.20;100993.00;;;;5070685;28;20199;-43
2022/06/15 06:56:49;;;;;;;4.73;3.03;;;21.40;50.70;22.20;101001.00;;;;5069848;28;20548;-43
2022/06/15 06:59:15;;;;;;;3.60;3.03;;;21.40;50.90;22.20;100991.00;;;;5069501;28;20173;-42
2022/06/15 07:01:42;;;;;;;2.97;2.60;;;21.40;51.00;22.20;100987.00;;;;5070046;28;20264;-41
2022/06/15 07:04:11;;;;;;;4.80;2.93;;;21.30;51.60;22.20;100989.00;;;;5070927;28;20192;-42
2022/06/15 07:06:37;;;;;;;3.17;2.70;;;21.30;51.50;22.20;100990.00;;;;4965184;28;20212;-41
2022/06/15 07:09:03;;;;;;;3.60;2.83;;;21.30;50.90;22.20;100988.00;;;;5090701;28;20177;-44
2022/06/15 07:11:29;;;;;;;4.30;3.00;;;21.30;51.10;22.20;100986.00;;;;5090562;28;20159;-41
2022/06/15 07:13:56;;;;;;;4.43;2.83;;;21.30;51.30;22.10;100979.00;;;;5108541;28;20214;-43
2022/06/15 07:16:22;;;;;;;3.77;2.90;;;21.30;51.20;22.10;100985.00;;;;5111092;28;20538;-43
2022/06/15 07:18:48;;;;;;;5.67;2.77;;;21.30;51.30;22.10;100986.00;;;;5113953;28;20171;-43
2022/06/15 07:21:17;;;;;;;3.27;2.67;;;21.30;51.50;22.10;100994.00;;;;5090529;28;20225;-41
2022/06/15 07:23:45;;;;;;;2.90;2.60;;;21.30;51.40;22.10;100987.00;;;;5090208;28;20688;-43
2022/06/15 07:26:14;;;;;;;4.50;2.77;;;21.30;51.60;22.10;100983.00;;;;5090527;28;20287;-42
2022/06/15 07:28:40;;;;;;;4.80;2.80;;;21.30;51.50;22.00;100985.00;;;;5089114;28;20165;-42
2022/06/15 07:31:06;;;;;;;4.40;2.90;;;21.20;51.40;22.00;100977.00;;;;5088936;28;20261;-41
2022/06/15 07:33:33;;;;;;;3.60;2.50;;;21.20;51.60;22.10;100979.00;;;;5089745;28;20206;-41
2022/06/15 07:35:58;;;;;;;4.17;2.63;;;21.20;51.60;22.10;100983.00;;;;5089986;28;20255;-42
2022/06/15 07:38:26;;;;;;;3.63;2.70;;;21.20;51.50;22.10;100973.00;;;;5089702;28;20173;-41
2022/06/15 07:40:52;;;;;;;3.03;2.70;;;21.20;51.50;22.10;100981.00;;;;5090434;28;20249;-42
2022/06/15 07:43:18;;;;;;;3.10;2.60;;;21.30;51.70;22.10;100978.00;;;;5090020;28;20200;-43
2022/06/15 07:45:44;;;;;;;3.83;2.77;;;21.30;51.50;22.10;100982.00;;;;5090465;28;20212;-43
2022/06/15 07:50:54;;;;;;;3.00;2.60;;;21.30;51.60;22.10;100985.00;;;;5089705;28;20221;-43
2022/06/15 07:53:20;;;;;;;3.73;2.53;;;21.30;51.60;22.10;100982.00;;;;5089320;28;20215;-48
2022/06/15 07:55:46;;;;;;;3.57;2.63;;;21.30;51.60;22.10;100961.00;;;;5089747;28;20167;-42
2022/06/15 07:58:12;;;;;;;3.30;2.50;;;21.40;51.70;22.20;100976.00;;;;5089031;28;20330;-44
2022/06/15 08:00:40;;;;;;;3.53;2.43;;;21.40;51.70;22.20;100981.00;;;;5089772;28;20224;-42
2022/06/15 08:03:05;;;;;;;2.47;2.27;;;21.40;51.80;22.20;100986.00;;;;5089783;28;20661;-42
2022/06/15 08:05:35;;;;;;;3.30;2.67;;;21.40;51.80;22.20;100981.00;;;;5107071;28;20212;-43
2022/06/15 08:08:16;;;;;;;2.60;2.40;;;21.50;52.10;22.30;100977.00;;;;5107420;28;20197;-42
2022/06/15 08:10:42;;;;;;;3.20;2.63;;;21.50;52.10;22.30;100980.00;;;;5106268;28;20764;-42
2022/06/15 08:13:08;;;;;;;3.50;2.77;;;21.50;52.50;22.30;100989.00;;;;5089792;28;20264;-43
2022/06/15 08:15:33;;;;;;;3.53;2.80;;;21.50;52.50;22.30;100975.00;;;;5090078;28;20753;-42
2022/06/15 08:18:03;;;;;;;3.03;2.60;;;21.50;52.20;22.30;100973.00;;;;5089781;28;20175;-42
2022/06/15 08:20:36;;;;;;;3.00;2.60;;;21.50;52.50;22.40;100981.00;;;;5105134;28;20198;-42
2022/06/15 08:23:07;;;;;;;3.07;2.50;;;21.60;52.90;22.40;100979.00;;;;5105114;28;20207;-43
2022/06/15 08:25:38;;;;;;;3.73;2.77;;;21.60;53.00;22.40;100975.00;;;;5105114;28;20737;-42
2022/06/15 08:28:04;;;;;;;3.83;2.83;;;21.50;53.50;22.40;100982.00;;;;5104920;28;20196;-44
2022/06/15 08:30:30;;;;;;;3.77;3.10;;;21.60;53.70;22.40;100978.00;;;;5105165;28;20540;-44
2022/06/15 08:32:56;;;;;;;4.03;2.97;;;21.60;53.80;22.40;100957.00;;;;5089163;28;20186;-44
2022/06/15 08:35:21;;;;;;;3.07;2.77;;;21.60;53.70;22.40;100972.00;;;;5089525;28;20176;-45
2022/06/15 08:37:47;;;;;;;3.43;2.60;;;21.60;53.70;22.50;100976.00;;;;5089099;28;20686;-44
2022/06/15 08:40:13;;;;;;;4.00;2.90;;;21.60;53.70;22.50;100957.00;;;;5089155;28;20177;-45
2022/06/15 08:42:58;;;;;;;5.03;2.77;;;21.70;53.80;22.50;100968.00;;;;5105097;28;20237;-43
2022/06/15 08:45:39;;;;;;;4.00;2.50;;;21.70;53.80;22.50;100963.00;;;;5104533;28;20531;-44
2022/06/15 08:48:24;;;;;;;4.17;2.70;;;21.70;54.00;22.50;100971.00;;;;5104699;28;20650;-44
2022/06/15 08:51:15;;;;;;;6.07;2.77;;;21.70;54.00;22.60;100973.00;;;;5089634;28;20179;-43
2022/06/15 08:54:26;;;;;;;3.63;2.80;;;21.70;54.20;22.60;100969.00;;;;5089562;28;20229;-44
2022/06/15 08:57:11;;;;;;;3.60;2.60;;;21.70;54.30;22.60;100959.00;;;;5089513;28;20584;-43
2022/06/15 08:59:54;;;;;;;4.10;2.70;;;21.70;54.40;22.60;100972.00;;;;5102381;28;20164;-44
2022/06/15 09:02:41;;;;;;;3.00;2.47;;;21.70;54.60;22.60;100981.00;;;;5104749;28;20188;-45
2022/06/15 09:05:53;;;;;;;4.10;2.77;;;21.70;54.60;22.60;100976.00;;;;5104420;28;20206;-45
2022/06/15 09:08:49;;;;;;;3.80;2.60;;;21.70;55.10;22.60;100964.00;;;;5093248;28;20657;-44
2022/06/15 09:11:39;;;;;;;3.93;2.73;;;21.80;54.60;22.60;100972.00;;;;4858870;28;22701;-43
2022/06/15 09:14:27;;;;;;;3.00;2.43;;;21.80;54.80;22.60;100966.00;;;;5062924;28;20197;-43
2022/06/15 09:17:14;;;;;;;4.17;2.60;;;21.80;54.80;22.70;100961.00;;;;5072651;28;20152;-43
2022/06/15 09:19:50;;;;;;;3.37;2.73;;;21.90;54.90;22.70;100954.00;;;;5106433;28;20589;-43
2022/06/15 09:22:20;;;;;;;3.30;2.43;;;21.90;55.00;22.70;100971.00;;;;5107249;28;20147;-44
2022/06/15 09:24:51;;;;;;;2.77;2.47;;;21.90;55.60;22.70;100956.00;;;;5109426;28;20690;-44
2022/06/15 09:27:36;;;;;;;3.40;2.50;;;21.90;55.30;22.70;100965.00;;;;5111289;28;20181;-44
2022/06/15 09:30:11;;;;;;;2.70;2.33;;;21.90;55.10;22.80;100911.00;;;;5107396;28;20326;-43
2022/06/15 09:32:50;;;;;;;2.63;2.40;;;21.90;55.30;22.80;100950.00;;;;5091987;28;20210;-44
2022/06/15 09:35:26;;;;;;;2.60;2.20;;;22.00;55.40;22.80;100944.00;;;;5091540;28;20164;-44
2022/06/15 09:37:54;;;;;;;2.80;2.50;;;22.00;55.50;22.80;100956.00;;;;5091189;28;20190;-45
2022/06/15 09:40:20;;;;;;;3.30;2.60;;;22.00;55.60;22.80;100959.00;;;;5092350;28;20254;-44
2022/06/15 09:43:16;;;;;;;2.60;2.40;;;22.00;55.50;22.90;100953.00;;;;5092426;28;20680;-44
2022/06/15 09:46:10;;;;;;;3.13;2.40;;;22.00;55.50;22.90;100955.00;;;;5092689;28;20532;-43
2022/06/15 09:49:21;;;;;;;2.40;2.20;;;22.10;55.60;22.90;100954.00;;;;5079852;28;20192;-44
2022/06/15 09:52:29;;;;;;;2.53;2.30;;;22.10;55.70;22.90;100951.00;;;;5093894;28;20555;-44
2022/06/15 09:55:51;;;;;;;2.67;2.43;;;22.10;56.00;22.90;100954.00;;;;5037522;28;20174;-44
2022/06/15 09:58:19;;;;;;;2.50;2.30;;;22.10;55.80;22.90;100945.00;;;;5028613;28;20334;-44
2022/06/15 10:00:45;;;;;;;3.33;2.40;;;22.10;55.90;22.90;100954.00;;;;5076948;28;20185;-44
2022/06/15 10:03:37;;;;;;;3.60;2.40;;;22.20;55.90;23.00;100957.00;;;;5073829;28;20532;-44
2022/06/15 10:06:21;;;;;;;2.50;2.30;;;22.20;55.90;23.00;100960.00;;;;5091044;28;20235;-44
2022/06/15 10:08:47;;;;;;;2.37;2.17;;;22.20;56.30;23.00;100943.00;;;;5091781;28;20173;-43
2022/06/15 10:11:24;;;;;;;2.40;2.20;;;22.30;56.40;23.10;100954.00;;;;5092344;28;20339;-45
2022/06/15 10:13:50;;;;;;;3.00;2.40;;;22.30;56.40;23.10;100958.00;;;;5106451;28;20662;-44
2022/06/15 10:16:29;;;;;;;2.50;2.30;;;22.30;56.40;23.10;100955.00;;;;5092379;28;20637;-43
2022/06/15 10:18:59;;;;;;;2.87;2.20;;;22.40;56.50;23.10;100951.00;;;;5107487;28;20173;-46
2022/06/15 10:21:28;;;;;;;2.43;2.23;;;22.30;56.30;23.20;100940.00;;;;5107918;28;20176;-44
2022/06/15 10:24:15;;;;;;;2.47;2.20;;;22.40;56.50;23.20;100951.00;;;;5107176;28;20692;-43
2022/06/15 10:27:12;;;;;;;3.87;3.27;;;22.40;56.60;23.20;100950.00;;;;5091802;28;20207;-45
2022/06/15 10:29:38;;;;;;;2.57;2.37;;;22.40;56.70;23.30;100955.00;;;;5095386;28;20440;-44
2022/06/15 10:32:09;;;;;;;3.60;2.23;;;22.50;56.70;23.30;100955.00;;;;5071224;28;20168;-44
2022/06/15 10:34:47;;;;;;;2.37;2.17;;;22.50;56.70;23.30;100951.00;;;;5072682;28;20176;-44
2022/06/15 10:37:26;;;;;;;3.53;2.70;;;22.50;56.60;23.30;100943.00;;;;5071298;28;20179;-44
2022/06/15 10:39:57;;;;;;;2.63;2.43;;;22.50;56.70;23.40;100939.00;;;;5075465;28;20307;-44
2022/06/15 10:42:34;;;;;;;2.70;2.20;;;22.50;56.80;23.40;100875.00;;;;5075665;28;20208;-44
2022/06/15 10:45:02;;;;;;;2.50;2.27;;;22.60;57.20;23.40;100939.00;;;;5073491;28;20262;-44
2022/06/15 10:47:49;;;;;;;2.40;2.20;;;22.60;57.30;23.50;100941.00;;;;5070900;28;20788;-44
2022/06/15 10:50:29;;;;;;;2.40;2.20;;;22.70;57.30;23.50;100928.00;;;;5071264;28;20177;-45
2022/06/15 10:53:27;;;;;;;2.47;2.27;;;22.70;57.20;23.50;100925.00;;;;5071565;28;20223;-44
2022/06/15 11:02:08;;;;;;;3.10;2.20;;;22.80;58.50;23.60;100918.00;;;;5099794;28;20549;-44
2022/06/15 11:04:43;;;;;;;4.23;2.20;;;22.90;58.30;23.70;100910.00;;;;5104175;28;20206;-44
2022/06/15 11:07:22;;;;;;;2.60;2.40;;;22.90;57.90;23.70;100923.00;;;;5090930;28;20721;-43
2022/06/15 11:09:54;;;;;;;4.40;2.20;;;23.00;57.40;23.70;100921.00;;;;5105915;28;20637;-44
2022/06/15 11:13:03;;;;;;;3.60;2.37;;;23.00;57.70;23.80;100912.00;;;;5090325;28;20520;-44
2022/06/15 11:18:38;;;;;;;5.73;2.47;;;23.20;58.60;23.90;100907.00;;;;5077021;28;20565;-43
2022/06/15 11:21:06;;;;;;;6.57;2.90;;;23.20;58.80;23.90;100906.00;;;;5070746;28;20158;-42
2022/06/15 11:24:02;;;;;;;7.23;2.77;;;23.20;58.30;24.00;100914.00;;;;5085095;28;20201;-44